KISN/ISN METAR and TAF weather

Enter ICAO airport designator
Station Type Date Time Source
KISN METAR 2019/05/19 20:52 UTC NOAA

KISN 192052Z AUTO 07008G16KT 10SM BKN065 12/M03 A3009 RMK AO2 SLP201 T01171033 56009


Station Type Date Time Source
KISN Decoded METAR 2019/05/19 20:52 UTC NOAA

SLOULIN FIELD INTERNATIONAL AIRPORT, ND, United States (KISN) 48-11N 103-39W 579M
May 19, 2019 - 04:52 PM EDT / 2019.05.19 2052 UTC
Wind: from the ENE (070 degrees) at 9 MPH (8 KT) gusting to 18 MPH (16 KT):0
Visibility: 10 mile(s):0
Sky conditions: mostly cloudy
Temperature: 53.1 F (11.7 C)
Dew Point: 26.1 F (-3.3 C)
Relative Humidity: 34%
Pressure (altimeter): 30.09 in. Hg (1018 hPa)
Pressure tendency: 0.03 inches (0.9 hPa) lower than three hours ago
ob: KISN 192052Z AUTO 07008G16KT 10SM BKN065 12/M03 A3009 RMK AO2 SLP201 T01171033 56009
cycle: 21

Station Type Date Time Source
KISN TAF 2019/05/19 18:33 UTC NOAA

TAF KISN 191730Z 1918/2018 06010KT P6SM SCT050 BKN120
FM200400 09005KT P6SM SCT200
FM201700 11011KT P6SM SCT200

Example: see airport list